sensor_id;sensor_type;location;lat;lon;timestamp;temperature;humidity
31731;DHT22;18310;55.586;12.286;2023-02-28T00:02:05;5.10;68.90
31731;DHT22;18310;55.586;12.286;2023-02-28T00:05:12;5.00;68.90
31731;DHT22;18310;55.586;12.286;2023-02-28T00:08:19;4.90;68.90
31731;DHT22;18310;55.586;12.286;2023-02-28T00:11:22;4.80;69.10
31731;DHT22;18310;55.586;12.286;2023-02-28T00:14:30;4.80;69.30
31731;DHT22;18310;55.586;12.286;2023-02-28T00:17:34;4.80;69.50
31731;DHT22;18310;55.586;12.286;2023-02-28T00:20:39;4.70;69.30
31731;DHT22;18310;55.586;12.286;2023-02-28T00:23:42;4.70;69.40
31731;DHT22;18310;55.586;12.286;2023-02-28T00:26:46;4.60;69.20
31731;DHT22;18310;55.586;12.286;2023-02-28T00:29:50;4.50;69.10
31731;DHT22;18310;55.586;12.286;2023-02-28T00:32:55;4.50;69.30
31731;DHT22;18310;55.586;12.286;2023-02-28T00:36:09;6.70;70.10
31731;DHT22;18310;55.586;12.286;2023-02-28T00:39:14;7.10;70.90
31731;DHT22;18310;55.586;12.286;2023-02-28T00:42:19;4.30;69.70
31731;DHT22;18310;55.586;12.286;2023-02-28T00:45:22;4.30;69.50
31731;DHT22;18310;55.586;12.286;2023-02-28T00:48:26;4.30;69.40
31731;DHT22;18310;55.586;12.286;2023-02-28T00:51:31;4.90;70.00
31731;DHT22;18310;55.586;12.286;2023-02-28T00:54:36;4.10;69.40
31731;DHT22;18310;55.586;12.286;2023-02-28T00:57:39;4.10;69.40
31731;DHT22;18310;55.586;12.286;2023-02-28T01:00:44;4.10;69.20
31731;DHT22;18310;55.586;12.286;2023-02-28T01:03:51;3.90;69.50
31731;DHT22;18310;55.586;12.286;2023-02-28T01:06:56;4.00;70.10
31731;DHT22;18310;55.586;12.286;2023-02-28T01:10:00;4.10;69.60
31731;DHT22;18310;55.586;12.286;2023-02-28T01:13:04;4.20;69.80
31731;DHT22;18310;55.586;12.286;2023-02-28T01:16:08;3.30;69.10
31731;DHT22;18310;55.586;12.286;2023-02-28T01:19:12;4.00;69.00
31731;DHT22;18310;55.586;12.286;2023-02-28T01:22:18;4.00;68.90
31731;DHT22;18310;55.586;12.286;2023-02-28T01:37:42;5.80;70.30
31731;DHT22;18310;55.586;12.286;2023-02-28T01:40:46;4.10;69.50
31731;DHT22;18310;55.586;12.286;2023-02-28T01:43:54;4.50;70.20
31731;DHT22;18310;55.586;12.286;2023-02-28T01:47:00;4.00;69.50
31731;DHT22;18310;55.586;12.286;2023-02-28T01:50:09;4.10;69.90
31731;DHT22;18310;55.586;12.286;2023-02-28T01:53:26;2.20;69.60
31731;DHT22;18310;55.586;12.286;2023-02-28T01:56:50;5.70;71.60
31731;DHT22;18310;55.586;12.286;2023-02-28T01:59:58;4.20;70.80
31731;DHT22;18310;55.586;12.286;2023-02-28T02:03:07;7.40;72.70
31731;DHT22;18310;55.586;12.286;2023-02-28T02:06:14;4.20;71.30
31731;DHT22;18310;55.586;12.286;2023-02-28T02:09:24;4.20;70.70
31731;DHT22;18310;55.586;12.286;2023-02-28T02:13:08;4.30;71.50
31731;DHT22;18310;55.586;12.286;2023-02-28T02:16:29;2.90;70.10
31731;DHT22;18310;55.586;12.286;2023-02-28T02:20:04;4.40;70.60
31731;DHT22;18310;55.586;12.286;2023-02-28T02:28:09;4.40;70.30
31731;DHT22;18310;55.586;12.286;2023-02-28T02:32:14;4.30;70.30
31731;DHT22;18310;55.586;12.286;2023-02-28T02:35:38;6.50;71.40
31731;DHT22;18310;55.586;12.286;2023-02-28T02:38:54;4.20;69.80
31731;DHT22;18310;55.586;12.286;2023-02-28T02:42:11;4.20;69.70
31731;DHT22;18310;55.586;12.286;2023-02-28T02:45:23;4.10;69.90
31731;DHT22;18310;55.586;12.286;2023-02-28T02:48:32;4.10;69.90
31731;DHT22;18310;55.586;12.286;2023-02-28T02:51:40;1.90;69.00
31731;DHT22;18310;55.586;12.286;2023-02-28T02:54:46;4.00;69.30
31731;DHT22;18310;55.586;12.286;2023-02-28T02:57:56;2.60;69.20
31731;DHT22;18310;55.586;12.286;2023-02-28T03:01:03;1.70;68.50
31731;DHT22;18310;55.586;12.286;2023-02-28T03:04:18;3.90;69.60
31731;DHT22;18310;55.586;12.286;2023-02-28T03:07:27;3.80;69.70
31731;DHT22;18310;55.586;12.286;2023-02-28T03:10:37;3.80;69.60
31731;DHT22;18310;55.586;12.286;2023-02-28T03:14:37;3.80;69.90
31731;DHT22;18310;55.586;12.286;2023-02-28T03:18:01;3.80;70.40
31731;DHT22;18310;55.586;12.286;2023-02-28T03:21:16;3.70;70.00
31731;DHT22;18310;55.586;12.286;2023-02-28T03:24:37;3.30;69.60
31731;DHT22;18310;55.586;12.286;2023-02-28T03:27:58;3.60;69.70
31731;DHT22;18310;55.586;12.286;2023-02-28T03:31:12;3.60;69.60
31731;DHT22;18310;55.586;12.286;2023-02-28T03:34:26;3.50;69.50
31731;DHT22;18310;55.586;12.286;2023-02-28T03:37:36;3.50;69.70
31731;DHT22;18310;55.586;12.286;2023-02-28T03:40:48;3.50;69.70
31731;DHT22;18310;55.586;12.286;2023-02-28T03:43:59;4.50;70.20
31731;DHT22;18310;55.586;12.286;2023-02-28T03:47:09;3.40;69.70
31731;DHT22;18310;55.586;12.286;2023-02-28T03:50:20;3.00;69.40
31731;DHT22;18310;55.586;12.286;2023-02-28T03:53:30;1.60;68.60
31731;DHT22;18310;55.586;12.286;2023-02-28T03:56:40;3.20;69.50
31731;DHT22;18310;55.586;12.286;2023-02-28T03:59:52;3.20;69.50
31731;DHT22;18310;55.586;12.286;2023-02-28T04:02:59;3.10;69.30
31731;DHT22;18310;55.586;12.286;2023-02-28T04:06:05;3.10;69.60
31731;DHT22;18310;55.586;12.286;2023-02-28T04:09:13;3.00;69.70
31731;DHT22;18310;55.586;12.286;2023-02-28T04:12:19;2.10;69.30
31731;DHT22;18310;55.586;12.286;2023-02-28T04:15:26;2.90;69.80
31731;DHT22;18310;55.586;12.286;2023-02-28T04:18:29;1.00;68.90
31731;DHT22;18310;55.586;12.286;2023-02-28T04:21:35;2.90;70.00
31731;DHT22;18310;55.586;12.286;2023-02-28T04:24:42;2.80;70.10
31731;DHT22;18310;55.586;12.286;2023-02-28T04:27:48;2.20;69.70
31731;DHT22;18310;55.586;12.286;2023-02-28T04:30:55;0.80;69.10
31731;DHT22;18310;55.586;12.286;2023-02-28T04:34:00;4.30;71.10
31731;DHT22;18310;55.586;12.286;2023-02-28T04:37:09;2.80;70.20
31731;DHT22;18310;55.586;12.286;2023-02-28T04:40:15;2.80;70.20
31731;DHT22;18310;55.586;12.286;2023-02-28T04:43:22;0.80;69.00
31731;DHT22;18310;55.586;12.286;2023-02-28T04:46:26;2.40;70.10
31731;DHT22;18310;55.586;12.286;2023-02-28T04:49:30;2.80;70.20
31731;DHT22;18310;55.586;12.286;2023-02-28T04:52:34;3.90;70.80
31731;DHT22;18310;55.586;12.286;2023-02-28T04:55:38;2.70;70.00
31731;DHT22;18310;55.586;12.286;2023-02-28T04:58:44;2.70;70.10
31731;DHT22;18310;55.586;12.286;2023-02-28T05:01:49;2.70;70.20
31731;DHT22;18310;55.586;12.286;2023-02-28T05:04:54;2.60;70.00
31731;DHT22;18310;55.586;12.286;2023-02-28T05:07:58;1.00;69.10
31731;DHT22;18310;55.586;12.286;2023-02-28T05:11:02;2.60;70.10
31731;DHT22;18310;55.586;12.286;2023-02-28T05:14:11;2.60;70.20
31731;DHT22;18310;55.586;12.286;2023-02-28T05:17:16;2.50;70.50
31731;DHT22;18310;55.586;12.286;2023-02-28T05:20:20;1.60;70.00
31731;DHT22;18310;55.586;12.286;2023-02-28T05:23:24;2.10;70.40
31731;DHT22;18310;55.586;12.286;2023-02-28T05:26:28;2.60;70.80
31731;DHT22;18310;55.586;12.286;2023-02-28T05:29:34;2.60;71.00
31731;DHT22;18310;55.586;12.286;2023-02-28T05:32:50;2.60;71.10
31731;DHT22;18310;55.586;12.286;2023-02-28T05:35:54;2.60;71.20
31731;DHT22;18310;55.586;12.286;2023-02-28T05:39:00;2.70;71.10
31731;DHT22;18310;55.586;12.286;2023-02-28T05:42:05;1.40;70.20
31731;DHT22;18310;55.586;12.286;2023-02-28T05:45:11;2.70;70.90
31731;DHT22;18310;55.586;12.286;2023-02-28T05:48:16;2.40;70.70
31731;DHT22;18310;55.586;12.286;2023-02-28T05:51:20;3.40;71.10
31731;DHT22;18310;55.586;12.286;2023-02-28T05:54:25;2.70;70.80
31731;DHT22;18310;55.586;12.286;2023-02-28T05:57:28;2.70;70.80
31731;DHT22;18310;55.586;12.286;2023-02-28T06:00:34;2.60;71.50
31731;DHT22;18310;55.586;12.286;2023-02-28T06:03:39;1.10;69.80
31731;DHT22;18310;55.586;12.286;2023-02-28T06:06:42;2.60;70.20
31731;DHT22;18310;55.586;12.286;2023-02-28T06:09:46;2.60;70.60
31731;DHT22;18310;55.586;12.286;2023-02-28T06:12:50;2.60;70.70
31731;DHT22;18310;55.586;12.286;2023-02-28T06:15:57;4.10;71.40
31731;DHT22;18310;55.586;12.286;2023-02-28T06:19:04;2.60;70.50
31731;DHT22;18310;55.586;12.286;2023-02-28T06:22:08;2.60;70.50
31731;DHT22;18310;55.586;12.286;2023-02-28T06:25:13;2.50;70.50
31731;DHT22;18310;55.586;12.286;2023-02-28T06:28:17;2.50;70.60
31731;DHT22;18310;55.586;12.286;2023-02-28T06:31:22;2.60;70.60
31731;DHT22;18310;55.586;12.286;2023-02-28T06:34:28;2.60;70.70
31731;DHT22;18310;55.586;12.286;2023-02-28T06:37:31;2.60;70.60
31731;DHT22;18310;55.586;12.286;2023-02-28T06:40:36;2.10;70.90
31731;DHT22;18310;55.586;12.286;2023-02-28T06:43:42;3.80;71.30
31731;DHT22;18310;55.586;12.286;2023-02-28T06:46:47;2.70;70.70
31731;DHT22;18310;55.586;12.286;2023-02-28T06:49:52;3.90;71.20
31731;DHT22;18310;55.586;12.286;2023-02-28T06:53:00;2.70;70.50
31731;DHT22;18310;55.586;12.286;2023-02-28T06:56:09;3.50;71.00
31731;DHT22;18310;55.586;12.286;2023-02-28T06:59:14;2.80;70.60
31731;DHT22;18310;55.586;12.286;2023-02-28T07:02:19;2.80;70.60
31731;DHT22;18310;55.586;12.286;2023-02-28T07:05:23;5.10;72.40
31731;DHT22;18310;55.586;12.286;2023-02-28T07:08:28;4.40;71.40
31731;DHT22;18310;55.586;12.286;2023-02-28T07:11:33;4.50;71.20
31731;DHT22;18310;55.586;12.286;2023-02-28T07:14:38;3.10;70.90
31731;DHT22;18310;55.586;12.286;2023-02-28T07:17:43;3.20;70.80
31731;DHT22;18310;55.586;12.286;2023-02-28T07:20:47;3.30;70.90
31731;DHT22;18310;55.586;12.286;2023-02-28T07:23:50;3.40;71.00
31731;DHT22;18310;55.586;12.286;2023-02-28T07:26:54;3.50;71.20
31731;DHT22;18310;55.586;12.286;2023-02-28T07:29:58;3.60;71.10
31731;DHT22;18310;55.586;12.286;2023-02-28T07:33:05;3.70;71.40
31731;DHT22;18310;55.586;12.286;2023-02-28T07:36:10;3.90;71.50
31731;DHT22;18310;55.586;12.286;2023-02-28T07:39:17;2.20;70.40
31731;DHT22;18310;55.586;12.286;2023-02-28T07:42:21;4.20;71.40
31731;DHT22;18310;55.586;12.286;2023-02-28T07:45:25;4.30;71.40
31731;DHT22;18310;55.586;12.286;2023-02-28T07:48:29;4.50;71.50
31731;DHT22;18310;55.586;12.286;2023-02-28T07:51:33;4.60;71.60
31731;DHT22;18310;55.586;12.286;2023-02-28T07:54:37;6.00;72.30
31731;DHT22;18310;55.586;12.286;2023-02-28T07:57:42;4.90;71.60
31731;DHT22;18310;55.586;12.286;2023-02-28T08:00:46;6.40;72.30
31731;DHT22;18310;55.586;12.286;2023-02-28T08:03:52;5.20;71.60
31731;DHT22;18310;55.586;12.286;2023-02-28T08:06:56;5.40;71.50
31731;DHT22;18310;55.586;12.286;2023-02-28T08:10:01;5.60;71.50
31731;DHT22;18310;55.586;12.286;2023-02-28T08:13:07;5.80;71.40
31731;DHT22;18310;55.586;12.286;2023-02-28T08:16:12;6.00;71.40
31731;DHT22;18310;55.586;12.286;2023-02-28T08:19:25;6.20;71.40
31731;DHT22;18310;55.586;12.286;2023-02-28T08:22:29;6.40;71.40
31731;DHT22;18310;55.586;12.286;2023-02-28T08:25:33;6.60;71.40
31731;DHT22;18310;55.586;12.286;2023-02-28T08:28:38;6.80;71.30
31731;DHT22;18310;55.586;12.286;2023-02-28T08:31:42;7.00;71.30
31731;DHT22;18310;55.586;12.286;2023-02-28T08:34:51;7.20;71.50
31731;DHT22;18310;55.586;12.286;2023-02-28T08:37:55;7.10;70.70
31731;DHT22;18310;55.586;12.286;2023-02-28T08:41:01;6.30;69.80
31731;DHT22;18310;55.586;12.286;2023-02-28T08:44:07;7.60;70.40
31731;DHT22;18310;55.586;12.286;2023-02-28T08:47:12;7.70;70.30
31731;DHT22;18310;55.586;12.286;2023-02-28T08:50:17;7.80;70.30
31731;DHT22;18310;55.586;12.286;2023-02-28T08:53:21;7.90;70.10
31731;DHT22;18310;55.586;12.286;2023-02-28T08:56:25;8.10;69.70
31731;DHT22;18310;55.586;12.286;2023-02-28T08:59:28;8.60;69.80
31731;DHT22;18310;55.586;12.286;2023-02-28T09:02:33;8.30;69.50
31731;DHT22;18310;55.586;12.286;2023-02-28T09:05:38;8.40;69.60
31731;DHT22;18310;55.586;12.286;2023-02-28T09:08:41;8.50;69.50
31731;DHT22;18310;55.586;12.286;2023-02-28T09:11:45;7.80;68.40
31731;DHT22;18310;55.586;12.286;2023-02-28T09:14:49;8.80;69.40
31731;DHT22;18310;55.586;12.286;2023-02-28T09:17:56;8.90;69.10
31731;DHT22;18310;55.586;12.286;2023-02-28T09:21:04;9.70;69.30
31731;DHT22;18310;55.586;12.286;2023-02-28T09:24:08;9.20;68.40
31731;DHT22;18310;55.586;12.286;2023-02-28T09:27:18;9.70;68.40
31731;DHT22;18310;55.586;12.286;2023-02-28T09:30:25;9.50;67.80
31731;DHT22;18310;55.586;12.286;2023-02-28T09:33:30;9.60;67.90
31731;DHT22;18310;55.586;12.286;2023-02-28T09:36:35;9.70;67.80
31731;DHT22;18310;55.586;12.286;2023-02-28T09:39:46;9.90;67.60
31731;DHT22;18310;55.586;12.286;2023-02-28T09:42:53;9.90;67.30
31731;DHT22;18310;55.586;12.286;2023-02-28T09:46:05;10.10;67.00
31731;DHT22;18310;55.586;12.286;2023-02-28T09:49:17;10.20;66.70
31731;DHT22;18310;55.586;12.286;2023-02-28T09:52:30;10.30;66.50
31731;DHT22;18310;55.586;12.286;2023-02-28T09:55:39;10.40;65.30
31731;DHT22;18310;55.586;12.286;2023-02-28T09:58:52;10.50;65.40
31731;DHT22;18310;55.586;12.286;2023-02-28T10:02:04;10.50;64.40
31731;DHT22;18310;55.586;12.286;2023-02-28T10:05:17;10.60;65.10
31731;DHT22;18310;55.586;12.286;2023-02-28T10:08:27;10.70;65.10
31731;DHT22;18310;55.586;12.286;2023-02-28T10:11:36;11.00;64.60
31731;DHT22;18310;55.586;12.286;2023-02-28T10:14:49;10.50;64.50
31731;DHT22;18310;55.586;12.286;2023-02-28T10:18:16;12.70;65.20
31731;DHT22;18310;55.586;12.286;2023-02-28T10:21:29;10.90;64.20
31731;DHT22;18310;55.586;12.286;2023-02-28T10:24:42;11.80;64.50
31731;DHT22;18310;55.586;12.286;2023-02-28T10:27:47;11.00;64.00
31731;DHT22;18310;55.586;12.286;2023-02-28T10:30:53;11.10;64.30
31731;DHT22;18310;55.586;12.286;2023-02-28T10:33:58;11.10;64.00
31731;DHT22;18310;55.586;12.286;2023-02-28T10:37:11;11.20;63.90
31731;DHT22;18310;55.586;12.286;2023-02-28T10:40:34;11.30;63.60
31731;DHT22;18310;55.586;12.286;2023-02-28T10:43:40;11.40;63.40
31731;DHT22;18310;55.586;12.286;2023-02-28T10:46:46;11.50;63.40
31731;DHT22;18310;55.586;12.286;2023-02-28T10:49:52;11.60;63.20
31731;DHT22;18310;55.586;12.286;2023-02-28T10:53:10;11.70;63.10
31731;DHT22;18310;55.586;12.286;2023-02-28T10:56:31;11.40;61.80
31731;DHT22;18310;55.586;12.286;2023-02-28T10:59:38;11.90;62.40
31731;DHT22;18310;55.586;12.286;2023-02-28T11:02:41;12.00;62.30
31731;DHT22;18310;55.586;12.286;2023-02-28T11:05:53;12.00;62.10
31731;DHT22;18310;55.586;12.286;2023-02-28T11:08:59;12.40;62.00
31731;DHT22;18310;55.586;12.286;2023-02-28T11:12:22;12.10;61.30
31731;DHT22;18310;55.586;12.286;2023-02-28T11:15:29;13.40;61.00
31731;DHT22;18310;55.586;12.286;2023-02-28T11:18:40;10.80;59.90
31731;DHT22;18310;55.586;12.286;2023-02-28T11:21:52;12.20;60.40
31731;DHT22;18310;55.586;12.286;2023-02-28T11:25:02;12.20;60.40
31731;DHT22;18310;55.586;12.286;2023-02-28T11:28:26;12.30;60.60
31731;DHT22;18310;55.586;12.286;2023-02-28T11:31:33;12.20;59.80
31731;DHT22;18310;55.586;12.286;2023-02-28T11:34:39;12.00;60.60
31731;DHT22;18310;55.586;12.286;2023-02-28T11:37:43;13.30;60.70
31731;DHT22;18310;55.586;12.286;2023-02-28T11:40:57;10.60;58.60
31731;DHT22;18310;55.586;12.286;2023-02-28T11:44:25;12.40;59.50
31731;DHT22;18310;55.586;12.286;2023-02-28T11:47:41;12.40;59.30
31731;DHT22;18310;55.586;12.286;2023-02-28T11:50:59;12.40;59.90
31731;DHT22;18310;55.586;12.286;2023-02-28T11:54:26;12.40;59.60
31731;DHT22;18310;55.586;12.286;2023-02-28T11:57:53;12.50;58.20
31731;DHT22;18310;55.586;12.286;2023-02-28T12:01:23;12.50;58.70
31731;DHT22;18310;55.586;12.286;2023-02-28T12:04:41;12.50;58.70
31731;DHT22;18310;55.586;12.286;2023-02-28T12:08:06;13.30;59.10
31731;DHT22;18310;55.586;12.286;2023-02-28T12:11:45;12.50;58.50
31731;DHT22;18310;55.586;12.286;2023-02-28T12:15:22;11.70;58.00
31731;DHT22;18310;55.586;12.286;2023-02-28T12:22:38;12.60;57.60
31731;DHT22;18310;55.586;12.286;2023-02-28T12:25:55;12.60;58.60
31731;DHT22;18310;55.586;12.286;2023-02-28T12:29:12;12.60;58.40
31731;DHT22;18310;55.586;12.286;2023-02-28T12:32:26;12.70;58.30
31731;DHT22;18310;55.586;12.286;2023-02-28T12:35:38;12.70;57.90
31731;DHT22;18310;55.586;12.286;2023-02-28T12:38:55;12.70;58.00
31731;DHT22;18310;55.586;12.286;2023-02-28T12:42:05;12.60;57.70
31731;DHT22;18310;55.586;12.286;2023-02-28T12:45:18;12.60;57.70
31731;DHT22;18310;55.586;12.286;2023-02-28T12:48:28;12.40;57.40
31731;DHT22;18310;55.586;12.286;2023-02-28T12:51:42;14.00;58.50
31731;DHT22;18310;55.586;12.286;2023-02-28T12:54:52;12.20;57.90
31731;DHT22;18310;55.586;12.286;2023-02-28T12:58:08;12.10;58.10
31731;DHT22;18310;55.586;12.286;2023-02-28T13:05:32;12.00;57.90
31731;DHT22;18310;55.586;12.286;2023-02-28T13:09:04;12.10;58.10
31731;DHT22;18310;55.586;12.286;2023-02-28T13:12:18;12.10;58.10
31731;DHT22;18310;55.586;12.286;2023-02-28T13:15:29;12.10;58.30
31731;DHT22;18310;55.586;12.286;2023-02-28T13:18:42;12.10;58.20
31731;DHT22;18310;55.586;12.286;2023-02-28T13:22:19;12.10;57.70
31731;DHT22;18310;55.586;12.286;2023-02-28T13:25:52;12.10;57.60
31731;DHT22;18310;55.586;12.286;2023-02-28T13:28:59;12.10;57.40
31731;DHT22;18310;55.586;12.286;2023-02-28T13:35:46;12.10;57.00
31731;DHT22;18310;55.586;12.286;2023-02-28T13:38:52;12.10;57.60
31731;DHT22;18310;55.586;12.286;2023-02-28T13:42:34;12.10;57.70
31731;DHT22;18310;55.586;12.286;2023-02-28T13:46:11;12.10;57.20
31731;DHT22;18310;55.586;12.286;2023-02-28T13:49:23;12.10;57.50
31731;DHT22;18310;55.586;12.286;2023-02-28T13:52:33;10.20;56.60
31731;DHT22;18310;55.586;12.286;2023-02-28T13:55:58;12.10;57.60
31731;DHT22;18310;55.586;12.286;2023-02-28T13:59:16;12.10;57.70
31731;DHT22;18310;55.586;12.286;2023-02-28T14:02:45;12.60;57.60
31731;DHT22;18310;55.586;12.286;2023-02-28T14:06:22;12.10;56.40
31731;DHT22;18310;55.586;12.286;2023-02-28T14:09:32;13.60;58.10
31731;DHT22;18310;55.586;12.286;2023-02-28T14:12:57;12.00;57.60
31731;DHT22;18310;55.586;12.286;2023-02-28T14:16:05;12.00;57.30
31731;DHT22;18310;55.586;12.286;2023-02-28T14:19:15;11.90;57.70
31731;DHT22;18310;55.586;12.286;2023-02-28T14:22:43;11.20;57.40
31731;DHT22;18310;55.586;12.286;2023-02-28T14:26:02;11.90;57.50
31731;DHT22;18310;55.586;12.286;2023-02-28T14:29:38;11.90;57.90
31731;DHT22;18310;55.586;12.286;2023-02-28T14:33:20;11.90;57.70
31731;DHT22;18310;55.586;12.286;2023-02-28T14:36:37;10.60;57.20
31731;DHT22;18310;55.586;12.286;2023-02-28T14:39:44;11.90;58.10
31731;DHT22;18310;55.586;12.286;2023-02-28T14:42:56;11.90;58.10
31731;DHT22;18310;55.586;12.286;2023-02-28T14:46:04;11.80;57.90
31731;DHT22;18310;55.586;12.286;2023-02-28T14:49:15;11.80;58.20
31731;DHT22;18310;55.586;12.286;2023-02-28T14:52:25;11.80;58.20
31731;DHT22;18310;55.586;12.286;2023-02-28T14:55:35;11.80;57.80
31731;DHT22;18310;55.586;12.286;2023-02-28T14:58:39;11.80;58.20
31731;DHT22;18310;55.586;12.286;2023-02-28T15:01:43;11.80;58.30
31731;DHT22;18310;55.586;12.286;2023-02-28T15:04:58;10.50;57.80
31731;DHT22;18310;55.586;12.286;2023-02-28T15:08:10;12.60;58.90
31731;DHT22;18310;55.586;12.286;2023-02-28T15:11:19;11.70;58.70
31731;DHT22;18310;55.586;12.286;2023-02-28T15:14:27;12.30;58.90
31731;DHT22;18310;55.586;12.286;2023-02-28T15:17:33;11.70;58.80
31731;DHT22;18310;55.586;12.286;2023-02-28T15:20:39;10.70;58.70
31731;DHT22;18310;55.586;12.286;2023-02-28T15:23:49;11.60;58.70
31731;DHT22;18310;55.586;12.286;2023-02-28T15:27:02;11.50;58.70
31731;DHT22;18310;55.586;12.286;2023-02-28T15:30:17;11.50;58.80
31731;DHT22;18310;55.586;12.286;2023-02-28T15:33:28;11.50;58.90
31731;DHT22;18310;55.586;12.286;2023-02-28T15:36:36;11.40;58.90
31731;DHT22;18310;55.586;12.286;2023-02-28T15:39:49;11.40;59.10
31731;DHT22;18310;55.586;12.286;2023-02-28T15:43:05;11.40;59.20
31731;DHT22;18310;55.586;12.286;2023-02-28T15:46:13;11.30;59.30
31731;DHT22;18310;55.586;12.286;2023-02-28T15:49:20;11.20;59.30
31731;DHT22;18310;55.586;12.286;2023-02-28T15:52:29;11.20;59.40
31731;DHT22;18310;55.586;12.286;2023-02-28T15:55:44;11.10;59.40
31731;DHT22;18310;55.586;12.286;2023-02-28T15:59:04;11.10;59.50
31731;DHT22;18310;55.586;12.286;2023-02-28T16:02:18;11.00;59.50
31731;DHT22;18310;55.586;12.286;2023-02-28T16:05:26;11.00;59.50
31731;DHT22;18310;55.586;12.286;2023-02-28T16:08:33;10.90;59.60
31731;DHT22;18310;55.586;12.286;2023-02-28T16:11:43;10.80;59.60
31731;DHT22;18310;55.586;12.286;2023-02-28T16:14:53;9.80;59.30
31731;DHT22;18310;55.586;12.286;2023-02-28T16:18:11;10.00;59.50
31731;DHT22;18310;55.586;12.286;2023-02-28T16:21:37;9.20;59.30
31731;DHT22;18310;55.586;12.286;2023-02-28T16:24:41;10.50;60.00
31731;DHT22;18310;55.586;12.286;2023-02-28T16:27:50;9.90;59.80
31731;DHT22;18310;55.586;12.286;2023-02-28T16:30:55;10.30;60.10
31731;DHT22;18310;55.586;12.286;2023-02-28T16:34:07;10.30;60.20
31731;DHT22;18310;55.586;12.286;2023-02-28T16:37:17;10.40;60.40
31731;DHT22;18310;55.586;12.286;2023-02-28T16:40:23;10.20;60.40
31731;DHT22;18310;55.586;12.286;2023-02-28T16:43:35;10.00;60.40
31731;DHT22;18310;55.586;12.286;2023-02-28T16:46:40;9.90;60.50
31731;DHT22;18310;55.586;12.286;2023-02-28T16:49:46;9.90;60.60
31731;DHT22;18310;55.586;12.286;2023-02-28T16:52:51;9.50;60.60
31731;DHT22;18310;55.586;12.286;2023-02-28T16:55:56;9.60;60.80
31731;DHT22;18310;55.586;12.286;2023-02-28T16:59:09;9.60;61.30
31731;DHT22;18310;55.586;12.286;2023-02-28T17:02:15;10.40;61.70
31731;DHT22;18310;55.586;12.286;2023-02-28T17:05:23;9.50;61.20
31731;DHT22;18310;55.586;12.286;2023-02-28T17:08:30;9.40;61.20
31731;DHT22;18310;55.586;12.286;2023-02-28T17:11:50;9.30;61.30
31731;DHT22;18310;55.586;12.286;2023-02-28T17:14:56;7.50;60.40
31731;DHT22;18310;55.586;12.286;2023-02-28T17:18:01;7.90;60.80
31731;DHT22;18310;55.586;12.286;2023-02-28T17:21:13;9.10;61.60
31731;DHT22;18310;55.586;12.286;2023-02-28T17:24:18;9.10;62.00
31731;DHT22;18310;55.586;12.286;2023-02-28T17:27:33;8.90;61.60
31731;DHT22;18310;55.586;12.286;2023-02-28T17:30:39;8.90;61.70
31731;DHT22;18310;55.586;12.286;2023-02-28T17:33:55;8.90;61.80
31731;DHT22;18310;55.586;12.286;2023-02-28T17:36:59;8.80;61.80
31731;DHT22;18310;55.586;12.286;2023-02-28T17:40:11;8.70;61.80
31731;DHT22;18310;55.586;12.286;2023-02-28T17:43:17;8.00;61.60
31731;DHT22;18310;55.586;12.286;2023-02-28T17:46:25;8.20;61.60
31731;DHT22;18310;55.586;12.286;2023-02-28T17:49:31;8.50;61.80
31731;DHT22;18310;55.586;12.286;2023-02-28T17:52:35;8.50;61.80
31731;DHT22;18310;55.586;12.286;2023-02-28T17:55:39;8.40;61.90
31731;DHT22;18310;55.586;12.286;2023-02-28T17:58:42;8.30;62.00
31731;DHT22;18310;55.586;12.286;2023-02-28T18:01:50;8.20;62.30
31731;DHT22;18310;55.586;12.286;2023-02-28T18:04:54;8.10;62.00
31731;DHT22;18310;55.586;12.286;2023-02-28T18:08:00;8.00;62.10
31731;DHT22;18310;55.586;12.286;2023-02-28T18:11:04;7.90;62.20
31731;DHT22;18310;55.586;12.286;2023-02-28T18:14:08;7.90;62.80
31731;DHT22;18310;55.586;12.286;2023-02-28T18:17:18;7.80;62.20
31731;DHT22;18310;55.586;12.286;2023-02-28T18:20:22;7.70;62.50
31731;DHT22;18310;55.586;12.286;2023-02-28T18:23:26;7.60;62.50
31731;DHT22;18310;55.586;12.286;2023-02-28T18:26:33;7.50;62.50
31731;DHT22;18310;55.586;12.286;2023-02-28T18:29:38;9.30;63.80
31731;DHT22;18310;55.586;12.286;2023-02-28T18:32:44;9.40;64.00
31731;DHT22;18310;55.586;12.286;2023-02-28T18:35:55;7.30;63.10
31731;DHT22;18310;55.586;12.286;2023-02-28T18:38:59;7.70;63.60
31731;DHT22;18310;55.586;12.286;2023-02-28T18:42:03;7.20;63.30
31731;DHT22;18310;55.586;12.286;2023-02-28T18:45:08;7.10;63.50
31731;DHT22;18310;55.586;12.286;2023-02-28T18:48:15;7.00;63.70
31731;DHT22;18310;55.586;12.286;2023-02-28T18:51:22;7.90;64.20
31731;DHT22;18310;55.586;12.286;2023-02-28T18:54:38;6.90;63.80
31731;DHT22;18310;55.586;12.286;2023-02-28T18:58:03;6.80;64.20
31731;DHT22;18310;55.586;12.286;2023-02-28T19:01:14;6.60;64.00
31731;DHT22;18310;55.586;12.286;2023-02-28T19:04:27;6.70;64.40
31731;DHT22;18310;55.586;12.286;2023-02-28T19:07:38;6.60;64.30
31731;DHT22;18310;55.586;12.286;2023-02-28T19:10:51;6.50;64.30
31731;DHT22;18310;55.586;12.286;2023-02-28T19:14:20;6.50;65.00
31731;DHT22;18310;55.586;12.286;2023-02-28T19:17:49;6.10;64.10
31731;DHT22;18310;55.586;12.286;2023-02-28T19:21:27;6.40;64.60
31731;DHT22;18310;55.586;12.286;2023-02-28T19:24:38;5.40;64.30
31731;DHT22;18310;55.586;12.286;2023-02-28T19:27:41;6.30;64.90
31731;DHT22;18310;55.586;12.286;2023-02-28T19:30:46;4.50;63.80
31731;DHT22;18310;55.586;12.286;2023-02-28T19:33:53;6.30;64.90
31731;DHT22;18310;55.586;12.286;2023-02-28T19:37:01;6.20;64.90
31731;DHT22;18310;55.586;12.286;2023-02-28T19:40:09;6.20;65.00
31731;DHT22;18310;55.586;12.286;2023-02-28T19:43:16;6.10;65.10
31731;DHT22;18310;55.586;12.286;2023-02-28T19:46:33;6.00;65.00
31731;DHT22;18310;55.586;12.286;2023-02-28T19:49:41;6.60;65.40
31731;DHT22;18310;55.586;12.286;2023-02-28T19:52:52;6.00;65.30
31731;DHT22;18310;55.586;12.286;2023-02-28T19:56:05;5.90;65.40
31731;DHT22;18310;55.586;12.286;2023-02-28T19:59:27;5.90;65.70
31731;DHT22;18310;55.586;12.286;2023-02-28T20:02:41;5.90;65.60
31731;DHT22;18310;55.586;12.286;2023-02-28T20:05:58;5.80;65.60
31731;DHT22;18310;55.586;12.286;2023-02-28T20:09:09;5.80;66.00
31731;DHT22;18310;55.586;12.286;2023-02-28T20:12:13;5.70;65.60
31731;DHT22;18310;55.586;12.286;2023-02-28T20:15:26;5.70;65.70
31731;DHT22;18310;55.586;12.286;2023-02-28T20:18:31;5.70;65.60
31731;DHT22;18310;55.586;12.286;2023-02-28T20:21:35;5.70;65.60
31731;DHT22;18310;55.586;12.286;2023-02-28T20:24:40;5.80;65.80